sensor_id;sensor_type;location;lat;lon;timestamp;pressure;altitude;pressure_sealevel;temperature;humidity
60920;BME280;59039;52.108;19.942;2022-12-05T00:01:37;101476.61;;;0.60;86.42
60920;BME280;59039;52.108;19.942;2022-12-05T00:04:11;101478.52;;;0.61;86.26
60920;BME280;59039;52.108;19.942;2022-12-05T00:06:39;101469.64;;;0.60;86.34
60920;BME280;59039;52.108;19.942;2022-12-05T00:09:06;101476.22;;;0.61;86.35
60920;BME280;59039;52.108;19.942;2022-12-05T00:11:34;101480.34;;;0.60;86.43
60920;BME280;59039;52.108;19.942;2022-12-05T00:14:00;101483.79;;;0.59;86.44
60920;BME280;59039;52.108;19.942;2022-12-05T00:16:27;101486.21;;;0.56;86.30
60920;BME280;59039;52.108;19.942;2022-12-05T00:18:53;101478.11;;;0.54;86.47
60920;BME280;59039;52.108;19.942;2022-12-05T00:21:24;101482.09;;;0.53;86.49
60920;BME280;59039;52.108;19.942;2022-12-05T00:23:51;101476.00;;;0.54;86.46
60920;BME280;59039;52.108;19.942;2022-12-05T00:26:16;101472.42;;;0.54;86.61
60920;BME280;59039;52.108;19.942;2022-12-05T00:28:42;101467.14;;;0.56;86.63
60920;BME280;59039;52.108;19.942;2022-12-05T00:31:09;101468.00;;;0.57;86.54
60920;BME280;59039;52.108;19.942;2022-12-05T00:33:35;101461.05;;;0.57;86.51
60920;BME280;59039;52.108;19.942;2022-12-05T00:36:02;101458.80;;;0.56;86.55
60920;BME280;59039;52.108;19.942;2022-12-05T00:38:28;101456.23;;;0.57;86.64
60920;BME280;59039;52.108;19.942;2022-12-05T00:40:53;101454.21;;;0.58;86.58
60920;BME280;59039;52.108;19.942;2022-12-05T00:43:18;101451.20;;;0.58;86.26
60920;BME280;59039;52.108;19.942;2022-12-05T00:45:43;101452.73;;;0.56;86.42
60920;BME280;59039;52.108;19.942;2022-12-05T00:48:09;101453.63;;;0.56;86.42
60920;BME280;59039;52.108;19.942;2022-12-05T00:50:34;101454.83;;;0.53;86.39
60920;BME280;59039;52.108;19.942;2022-12-05T00:52:59;101450.78;;;0.51;86.38
60920;BME280;59039;52.108;19.942;2022-12-05T00:55:24;101450.00;;;0.49;86.54
60920;BME280;59039;52.108;19.942;2022-12-05T00:57:49;101449.45;;;0.49;86.37
60920;BME280;59039;52.108;19.942;2022-12-05T01:00:15;101454.15;;;0.47;86.35
60920;BME280;59039;52.108;19.942;2022-12-05T01:02:40;101454.73;;;0.47;86.42
60920;BME280;59039;52.108;19.942;2022-12-05T01:05:06;101459.95;;;0.45;86.48
60920;BME280;59039;52.108;19.942;2022-12-05T01:07:31;101463.42;;;0.47;86.41
60920;BME280;59039;52.108;19.942;2022-12-05T01:09:57;101465.08;;;0.47;86.29
60920;BME280;59039;52.108;19.942;2022-12-05T01:12:22;101456.98;;;0.43;86.41
60920;BME280;59039;52.108;19.942;2022-12-05T01:14:47;101460.86;;;0.40;86.40
60920;BME280;59039;52.108;19.942;2022-12-05T01:17:12;101460.40;;;0.38;86.41
60920;BME280;59039;52.108;19.942;2022-12-05T01:19:37;101454.77;;;0.37;86.58
60920;BME280;59039;52.108;19.942;2022-12-05T01:22:03;101455.81;;;0.37;86.55
60920;BME280;59039;52.108;19.942;2022-12-05T01:24:28;101454.16;;;0.39;86.64
60920;BME280;59039;52.108;19.942;2022-12-05T01:26:54;101453.05;;;0.40;86.54
60920;BME280;59039;52.108;19.942;2022-12-05T01:29:21;101454.97;;;0.40;86.57
60920;BME280;59039;52.108;19.942;2022-12-05T01:31:46;101454.16;;;0.43;86.54
60920;BME280;59039;52.108;19.942;2022-12-05T01:34:14;101454.15;;;0.44;86.62
60920;BME280;59039;52.108;19.942;2022-12-05T01:36:40;101456.70;;;0.46;86.53
60920;BME280;59039;52.108;19.942;2022-12-05T01:39:07;101448.45;;;0.47;86.56
60920;BME280;59039;52.108;19.942;2022-12-05T01:41:35;101447.02;;;0.48;86.58
60920;BME280;59039;52.108;19.942;2022-12-05T01:46:52;101433.56;;;0.45;86.42
60920;BME280;59039;52.108;19.942;2022-12-05T01:49:38;101432.85;;;0.45;86.55
60920;BME280;59039;52.108;19.942;2022-12-05T01:52:10;101421.16;;;0.48;86.35
60920;BME280;59039;52.108;19.942;2022-12-05T01:54:38;101414.13;;;0.45;86.39
60920;BME280;59039;52.108;19.942;2022-12-05T01:57:06;101407.67;;;0.46;86.40
60920;BME280;59039;52.108;19.942;2022-12-05T01:59:35;101404.92;;;0.44;86.39
60920;BME280;59039;52.108;19.942;2022-12-05T02:02:03;101398.89;;;0.43;86.50
60920;BME280;59039;52.108;19.942;2022-12-05T02:04:29;101400.34;;;0.43;86.42
60920;BME280;59039;52.108;19.942;2022-12-05T02:06:54;101402.80;;;0.43;86.54
60920;BME280;59039;52.108;19.942;2022-12-05T02:09:20;101404.29;;;0.42;86.49
60920;BME280;59039;52.108;19.942;2022-12-05T02:11:54;101404.95;;;0.38;86.49
60920;BME280;59039;52.108;19.942;2022-12-05T02:17:53;101406.73;;;0.34;86.50
60920;BME280;59039;52.108;19.942;2022-12-05T02:25:59;101414.25;;;0.34;86.58
60920;BME280;59039;52.108;19.942;2022-12-05T02:28:53;101405.99;;;0.35;86.56
60920;BME280;59039;52.108;19.942;2022-12-05T02:31:36;101406.88;;;0.35;86.58
60920;BME280;59039;52.108;19.942;2022-12-05T02:34:18;101405.50;;;0.34;86.56
60920;BME280;59039;52.108;19.942;2022-12-05T02:36:56;101403.45;;;0.36;86.53
60920;BME280;59039;52.108;19.942;2022-12-05T02:39:39;101406.22;;;0.34;86.56
60920;BME280;59039;52.108;19.942;2022-12-05T02:42:23;101402.11;;;0.34;86.53
60920;BME280;59039;52.108;19.942;2022-12-05T02:44:59;101405.10;;;0.35;86.51
60920;BME280;59039;52.108;19.942;2022-12-05T02:47:28;101416.92;;;0.38;86.53
60920;BME280;59039;52.108;19.942;2022-12-05T02:49:56;101410.20;;;0.37;86.41
60920;BME280;59039;52.108;19.942;2022-12-05T02:52:22;101410.39;;;0.37;86.43
60920;BME280;59039;52.108;19.942;2022-12-05T02:54:50;101412.89;;;0.37;86.49
60920;BME280;59039;52.108;19.942;2022-12-05T02:57:17;101409.08;;;0.38;86.47
60920;BME280;59039;52.108;19.942;2022-12-05T02:59:44;101407.64;;;0.38;86.50
60920;BME280;59039;52.108;19.942;2022-12-05T03:02:27;101406.02;;;0.38;86.58
60920;BME280;59039;52.108;19.942;2022-12-05T03:04:55;101400.07;;;0.40;86.60
60920;BME280;59039;52.108;19.942;2022-12-05T03:07:24;101397.90;;;0.41;86.44
60920;BME280;59039;52.108;19.942;2022-12-05T03:09:56;101394.20;;;0.40;86.53
60920;BME280;59039;52.108;19.942;2022-12-05T03:12:34;101395.98;;;0.39;86.50
60920;BME280;59039;52.108;19.942;2022-12-05T03:17:34;101383.77;;;0.38;86.46
60920;BME280;59039;52.108;19.942;2022-12-05T03:20:12;101385.19;;;0.38;86.57
60920;BME280;59039;52.108;19.942;2022-12-05T03:22:47;101381.76;;;0.39;86.47
60920;BME280;59039;52.108;19.942;2022-12-05T03:25:15;101378.42;;;0.38;86.52
60920;BME280;59039;52.108;19.942;2022-12-05T03:27:51;101373.90;;;0.40;86.60
60920;BME280;59039;52.108;19.942;2022-12-05T03:30:19;101373.38;;;0.39;86.42
60920;BME280;59039;52.108;19.942;2022-12-05T03:33:02;101376.62;;;0.38;86.43
60920;BME280;59039;52.108;19.942;2022-12-05T03:35:44;101373.97;;;0.38;86.42
60920;BME280;59039;52.108;19.942;2022-12-05T03:38:32;101370.65;;;0.36;86.39
60920;BME280;59039;52.108;19.942;2022-12-05T03:41:08;101362.67;;;0.35;86.44
60920;BME280;59039;52.108;19.942;2022-12-05T03:43:46;101363.33;;;0.32;86.40
60920;BME280;59039;52.108;19.942;2022-12-05T03:46:28;101368.15;;;0.32;86.53
60920;BME280;59039;52.108;19.942;2022-12-05T03:51:34;101377.70;;;0.34;86.51
60920;BME280;59039;52.108;19.942;2022-12-05T03:54:08;101376.20;;;0.36;86.40
60920;BME280;59039;52.108;19.942;2022-12-05T03:56:43;101375.06;;;0.33;86.40
60920;BME280;59039;52.108;19.942;2022-12-05T03:59:18;101376.15;;;0.33;86.54
60920;BME280;59039;52.108;19.942;2022-12-05T04:01:47;101374.52;;;0.33;86.36
60920;BME280;59039;52.108;19.942;2022-12-05T04:04:16;101383.48;;;0.32;86.40
60920;BME280;59039;52.108;19.942;2022-12-05T04:06:46;101381.20;;;0.31;86.38
60920;BME280;59039;52.108;19.942;2022-12-05T04:09:18;101378.16;;;0.32;86.37
60920;BME280;59039;52.108;19.942;2022-12-05T04:11:50;101381.37;;;0.32;86.39
60920;BME280;59039;52.108;19.942;2022-12-05T04:14:23;101376.64;;;0.30;86.58
60920;BME280;59039;52.108;19.942;2022-12-05T04:17:00;101381.73;;;0.31;86.44
60920;BME280;59039;52.108;19.942;2022-12-05T04:19:42;101384.41;;;0.31;86.42
60920;BME280;59039;52.108;19.942;2022-12-05T04:22:09;101385.19;;;0.30;86.34
60920;BME280;59039;52.108;19.942;2022-12-05T04:24:34;101390.79;;;0.32;86.44
60920;BME280;59039;52.108;19.942;2022-12-05T04:27:09;101393.98;;;0.33;86.32
60920;BME280;59039;52.108;19.942;2022-12-05T04:32:26;101400.19;;;0.29;86.39
60920;BME280;59039;52.108;19.942;2022-12-05T04:34:58;101398.05;;;0.29;86.49
60920;BME280;59039;52.108;19.942;2022-12-05T04:37:30;101399.13;;;0.29;86.34
60920;BME280;59039;52.108;19.942;2022-12-05T04:40:01;101404.32;;;0.29;86.45
60920;BME280;59039;52.108;19.942;2022-12-05T04:42:31;101405.58;;;0.28;86.51
60920;BME280;59039;52.108;19.942;2022-12-05T04:45:02;101403.88;;;0.26;86.49
60920;BME280;59039;52.108;19.942;2022-12-05T04:47:33;101408.63;;;0.28;86.45
60920;BME280;59039;52.108;19.942;2022-12-05T04:50:00;101410.67;;;0.30;86.55
60920;BME280;59039;52.108;19.942;2022-12-05T04:52:27;101408.62;;;0.32;86.57
60920;BME280;59039;52.108;19.942;2022-12-05T04:55:04;101406.06;;;0.34;86.54
60920;BME280;59039;52.108;19.942;2022-12-05T04:57:36;101412.14;;;0.37;86.57
60920;BME280;59039;52.108;19.942;2022-12-05T05:00:04;101405.53;;;0.38;86.24
60920;BME280;59039;52.108;19.942;2022-12-05T05:02:40;101400.64;;;0.35;86.18
60920;BME280;59039;52.108;19.942;2022-12-05T05:05:09;101402.91;;;0.32;86.31
60920;BME280;59039;52.108;19.942;2022-12-05T05:07:43;101400.15;;;0.34;86.46
60920;BME280;59039;52.108;19.942;2022-12-05T05:10:11;101405.04;;;0.37;86.37
60920;BME280;59039;52.108;19.942;2022-12-05T05:12:38;101400.83;;;0.35;86.40
60920;BME280;59039;52.108;19.942;2022-12-05T05:15:04;101397.60;;;0.35;86.27
60920;BME280;59039;52.108;19.942;2022-12-05T05:17:29;101390.48;;;0.35;86.08
60920;BME280;59039;52.108;19.942;2022-12-05T05:19:55;101390.08;;;0.32;86.22
60920;BME280;59039;52.108;19.942;2022-12-05T05:22:20;101384.42;;;0.31;86.31
60920;BME280;59039;52.108;19.942;2022-12-05T05:24:45;101386.75;;;0.31;86.31
60920;BME280;59039;52.108;19.942;2022-12-05T05:27:10;101386.17;;;0.32;86.30
60920;BME280;59039;52.108;19.942;2022-12-05T05:29:35;101385.84;;;0.31;86.32
60920;BME280;59039;52.108;19.942;2022-12-05T05:32:00;101383.80;;;0.33;86.26
60920;BME280;59039;52.108;19.942;2022-12-05T05:34:25;101384.71;;;0.33;86.15
60920;BME280;59039;52.108;19.942;2022-12-05T05:36:51;101385.30;;;0.32;86.23
60920;BME280;59039;52.108;19.942;2022-12-05T05:39:16;101388.63;;;0.33;86.15
60920;BME280;59039;52.108;19.942;2022-12-05T05:41:41;101388.63;;;0.33;86.21
60920;BME280;59039;52.108;19.942;2022-12-05T05:44:07;101389.06;;;0.35;86.20
60920;BME280;59039;52.108;19.942;2022-12-05T05:46:35;101389.02;;;0.36;86.20
60920;BME280;59039;52.108;19.942;2022-12-05T05:49:01;101385.66;;;0.36;86.04
60920;BME280;59039;52.108;19.942;2022-12-05T05:51:26;101387.70;;;0.34;86.14
60920;BME280;59039;52.108;19.942;2022-12-05T05:53:51;101389.98;;;0.35;86.15
60920;BME280;59039;52.108;19.942;2022-12-05T05:56:18;101395.68;;;0.35;86.27
60920;BME280;59039;52.108;19.942;2022-12-05T05:58:43;101390.23;;;0.37;86.12
60920;BME280;59039;52.108;19.942;2022-12-05T06:01:11;101394.52;;;0.37;86.17
60920;BME280;59039;52.108;19.942;2022-12-05T06:03:37;101397.03;;;0.36;86.08
60920;BME280;59039;52.108;19.942;2022-12-05T06:06:05;101392.21;;;0.36;86.24
60920;BME280;59039;52.108;19.942;2022-12-05T06:08:33;101396.75;;;0.39;86.24
60920;BME280;59039;52.108;19.942;2022-12-05T06:10:58;101395.66;;;0.39;86.25
60920;BME280;59039;52.108;19.942;2022-12-05T06:13:24;101392.57;;;0.41;86.19
60920;BME280;59039;52.108;19.942;2022-12-05T06:15:49;101386.55;;;0.40;86.26
60920;BME280;59039;52.108;19.942;2022-12-05T06:18:15;101389.42;;;0.39;86.14
60920;BME280;59039;52.108;19.942;2022-12-05T06:20:40;101388.64;;;0.37;86.16
60920;BME280;59039;52.108;19.942;2022-12-05T06:23:05;101386.88;;;0.36;86.31
60920;BME280;59039;52.108;19.942;2022-12-05T06:25:31;101384.67;;;0.38;86.35
60920;BME280;59039;52.108;19.942;2022-12-05T06:27:56;101383.77;;;0.38;86.22
60920;BME280;59039;52.108;19.942;2022-12-05T06:30:21;101386.73;;;0.39;86.20
60920;BME280;59039;52.108;19.942;2022-12-05T06:32:46;101385.71;;;0.39;86.25
60920;BME280;59039;52.108;19.942;2022-12-05T06:35:11;101385.95;;;0.37;86.38
60920;BME280;59039;52.108;19.942;2022-12-05T06:37:37;101385.95;;;0.37;86.38
60920;BME280;59039;52.108;19.942;2022-12-05T06:40:03;101386.69;;;0.36;86.42
60920;BME280;59039;52.108;19.942;2022-12-05T06:42:30;101388.43;;;0.37;86.33
60920;BME280;59039;52.108;19.942;2022-12-05T06:44:55;101387.50;;;0.38;86.28
60920;BME280;59039;52.108;19.942;2022-12-05T06:47:20;101388.50;;;0.40;86.38
60920;BME280;59039;52.108;19.942;2022-12-05T06:49:45;101385.83;;;0.39;86.50
60920;BME280;59039;52.108;19.942;2022-12-05T06:52:11;101383.94;;;0.42;86.48
60920;BME280;59039;52.108;19.942;2022-12-05T06:54:36;101385.15;;;0.43;86.44
60920;BME280;59039;52.108;19.942;2022-12-05T06:57:01;101384.61;;;0.44;86.50
60920;BME280;59039;52.108;19.942;2022-12-05T06:59:26;101384.33;;;0.46;86.35
60920;BME280;59039;52.108;19.942;2022-12-05T07:01:51;101382.77;;;0.45;86.43
60920;BME280;59039;52.108;19.942;2022-12-05T07:04:19;101378.71;;;0.48;86.43
60920;BME280;59039;52.108;19.942;2022-12-05T07:06:45;101376.39;;;0.48;86.42
60920;BME280;59039;52.108;19.942;2022-12-05T07:09:11;101375.09;;;0.49;86.39
60920;BME280;59039;52.108;19.942;2022-12-05T07:11:36;101370.85;;;0.49;86.32
60920;BME280;59039;52.108;19.942;2022-12-05T07:14:03;101368.45;;;0.50;86.44
60920;BME280;59039;52.108;19.942;2022-12-05T07:16:28;101363.56;;;0.52;86.34
60920;BME280;59039;52.108;19.942;2022-12-05T07:18:54;101363.27;;;0.50;86.34
60920;BME280;59039;52.108;19.942;2022-12-05T07:21:19;101362.99;;;0.48;86.14
60920;BME280;59039;52.108;19.942;2022-12-05T07:23:45;101363.95;;;0.47;86.09
60920;BME280;59039;52.108;19.942;2022-12-05T07:26:13;101368.27;;;0.46;86.08
60920;BME280;59039;52.108;19.942;2022-12-05T07:28:38;101364.30;;;0.47;85.93
60920;BME280;59039;52.108;19.942;2022-12-05T07:31:06;101361.95;;;0.44;86.11
60920;BME280;59039;52.108;19.942;2022-12-05T07:33:32;101360.89;;;0.44;86.03
60920;BME280;59039;52.108;19.942;2022-12-05T07:35:59;101361.63;;;0.44;86.06
60920;BME280;59039;52.108;19.942;2022-12-05T07:38:25;101361.45;;;0.43;86.04
60920;BME280;59039;52.108;19.942;2022-12-05T07:40:50;101361.50;;;0.42;86.32
60920;BME280;59039;52.108;19.942;2022-12-05T07:43:15;101355.09;;;0.41;86.33
60920;BME280;59039;52.108;19.942;2022-12-05T07:45:40;101354.36;;;0.42;86.49
60920;BME280;59039;52.108;19.942;2022-12-05T07:48:06;101355.86;;;0.44;86.61
60920;BME280;59039;52.108;19.942;2022-12-05T07:50:31;101353.12;;;0.46;86.84
60920;BME280;59039;52.108;19.942;2022-12-05T07:52:56;101349.92;;;0.50;86.84
60920;BME280;59039;52.108;19.942;2022-12-05T07:55:21;101345.55;;;0.52;86.76
60920;BME280;59039;52.108;19.942;2022-12-05T07:57:46;101341.77;;;0.53;86.83
60920;BME280;59039;52.108;19.942;2022-12-05T08:00:12;101345.54;;;0.52;86.83
60920;BME280;59039;52.108;19.942;2022-12-05T08:02:37;101341.35;;;0.54;86.88
60920;BME280;59039;52.108;19.942;2022-12-05T08:05:03;101346.99;;;0.55;86.93
60920;BME280;59039;52.108;19.942;2022-12-05T08:07:28;101344.83;;;0.56;86.88
60920;BME280;59039;52.108;19.942;2022-12-05T08:09:53;101340.83;;;0.57;86.90
60920;BME280;59039;52.108;19.942;2022-12-05T08:12:18;101342.18;;;0.59;86.93
60920;BME280;59039;52.108;19.942;2022-12-05T08:14:44;101338.41;;;0.60;86.64
60920;BME280;59039;52.108;19.942;2022-12-05T08:17:09;101342.20;;;0.59;86.53
60920;BME280;59039;52.108;19.942;2022-12-05T08:19:34;101349.51;;;0.59;86.43
60920;BME280;59039;52.108;19.942;2022-12-05T08:21:59;101354.83;;;0.60;86.36
60920;BME280;59039;52.108;19.942;2022-12-05T08:24:24;101357.11;;;0.61;86.45
60920;BME280;59039;52.108;19.942;2022-12-05T08:26:50;101360.25;;;0.62;86.23
60920;BME280;59039;52.108;19.942;2022-12-05T08:29:15;101360.73;;;0.59;86.37
60920;BME280;59039;52.108;19.942;2022-12-05T08:31:45;101362.66;;;0.60;86.32
60920;BME280;59039;52.108;19.942;2022-12-05T08:34:12;101359.92;;;0.61;86.44
60920;BME280;59039;52.108;19.942;2022-12-05T08:36:37;101357.23;;;0.61;86.57
60920;BME280;59039;52.108;19.942;2022-12-05T08:39:04;101348.70;;;0.65;86.71
60920;BME280;59039;52.108;19.942;2022-12-05T08:41:30;101343.28;;;0.67;86.72
60920;BME280;59039;52.108;19.942;2022-12-05T08:43:57;101341.58;;;0.69;86.77
60920;BME280;59039;52.108;19.942;2022-12-05T08:46:23;101342.39;;;0.71;86.92
60920;BME280;59039;52.108;19.942;2022-12-05T08:48:48;101344.31;;;0.72;86.82
60920;BME280;59039;52.108;19.942;2022-12-05T08:51:13;101348.37;;;0.72;86.90
60920;BME280;59039;52.108;19.942;2022-12-05T08:53:39;101352.80;;;0.73;86.95
60920;BME280;59039;52.108;19.942;2022-12-05T08:56:06;101355.30;;;0.74;87.00
60920;BME280;59039;52.108;19.942;2022-12-05T08:58:32;101355.19;;;0.75;86.96
60920;BME280;59039;52.108;19.942;2022-12-05T09:01:05;101351.54;;;0.78;87.03
60920;BME280;59039;52.108;19.942;2022-12-05T09:03:31;101349.56;;;0.81;87.07
60920;BME280;59039;52.108;19.942;2022-12-05T09:06:12;101351.96;;;0.84;86.94
60920;BME280;59039;52.108;19.942;2022-12-05T09:08:38;101355.98;;;0.86;86.97
60920;BME280;59039;52.108;19.942;2022-12-05T09:11:09;101350.03;;;0.87;87.04
60920;BME280;59039;52.108;19.942;2022-12-05T09:13:35;101349.86;;;0.91;86.86
60920;BME280;59039;52.108;19.942;2022-12-05T09:16:09;101339.80;;;0.92;86.93
60920;BME280;59039;52.108;19.942;2022-12-05T09:18:35;101331.90;;;0.93;86.94
60920;BME280;59039;52.108;19.942;2022-12-05T09:21:06;101329.66;;;0.96;86.89
60920;BME280;59039;52.108;19.942;2022-12-05T09:23:32;101325.91;;;0.96;86.87
60920;BME280;59039;52.108;19.942;2022-12-05T09:25:57;101326.36;;;0.97;86.88
60920;BME280;59039;52.108;19.942;2022-12-05T09:28:22;101323.83;;;0.98;86.83
60920;BME280;59039;52.108;19.942;2022-12-05T09:31:02;101320.65;;;1.01;86.86
60920;BME280;59039;52.108;19.942;2022-12-05T09:33:29;101319.59;;;1.05;86.83
60920;BME280;59039;52.108;19.942;2022-12-05T09:35:54;101319.27;;;1.04;86.71
60920;BME280;59039;52.108;19.942;2022-12-05T09:38:20;101313.77;;;1.03;86.82
60920;BME280;59039;52.108;19.942;2022-12-05T09:40:51;101310.79;;;1.07;86.70
60920;BME280;59039;52.108;19.942;2022-12-05T09:43:28;101306.73;;;1.05;86.81
60920;BME280;59039;52.108;19.942;2022-12-05T09:46:03;101303.03;;;1.08;86.74
60920;BME280;59039;52.108;19.942;2022-12-05T09:48:33;101304.19;;;1.10;86.73
60920;BME280;59039;52.108;19.942;2022-12-05T09:51:00;101300.33;;;1.13;86.72
60920;BME280;59039;52.108;19.942;2022-12-05T09:53:29;101296.13;;;1.14;86.68
60920;BME280;59039;52.108;19.942;2022-12-05T09:56:03;101295.63;;;1.17;86.80
60920;BME280;59039;52.108;19.942;2022-12-05T10:01:35;101304.77;;;1.20;86.68
60920;BME280;59039;52.108;19.942;2022-12-05T10:04:14;101307.50;;;1.22;86.66
60920;BME280;59039;52.108;19.942;2022-12-05T10:12:22;101307.08;;;1.24;86.48
60920;BME280;59039;52.108;19.942;2022-12-05T10:17:51;101297.69;;;1.26;86.57
60920;BME280;59039;52.108;19.942;2022-12-05T10:20:21;101288.89;;;1.28;86.60
60920;BME280;59039;52.108;19.942;2022-12-05T10:22:52;101288.50;;;1.28;86.55
60920;BME280;59039;52.108;19.942;2022-12-05T10:25:20;101286.12;;;1.30;86.50
60920;BME280;59039;52.108;19.942;2022-12-05T10:27:56;101281.56;;;1.31;86.54
60920;BME280;59039;52.108;19.942;2022-12-05T10:30:24;101281.58;;;1.31;86.40
60920;BME280;59039;52.108;19.942;2022-12-05T10:32:54;101284.73;;;1.32;86.53
60920;BME280;59039;52.108;19.942;2022-12-05T10:35:26;101281.29;;;1.33;86.46
60920;BME280;59039;52.108;19.942;2022-12-05T10:37:54;101283.40;;;1.34;86.46
60920;BME280;59039;52.108;19.942;2022-12-05T10:40:20;101277.89;;;1.37;86.47
60920;BME280;59039;52.108;19.942;2022-12-05T10:42:47;101271.13;;;1.37;86.51
60920;BME280;59039;52.108;19.942;2022-12-05T10:45:19;101268.92;;;1.38;86.41
60920;BME280;59039;52.108;19.942;2022-12-05T10:47:46;101265.70;;;1.38;86.36
60920;BME280;59039;52.108;19.942;2022-12-05T10:50:26;101263.91;;;1.38;86.46
60920;BME280;59039;52.108;19.942;2022-12-05T10:52:54;101260.16;;;1.42;86.53
60920;BME280;59039;52.108;19.942;2022-12-05T10:55:28;101258.59;;;1.44;86.27
60920;BME280;59039;52.108;19.942;2022-12-05T10:58:15;101257.41;;;1.43;86.37
60920;BME280;59039;52.108;19.942;2022-12-05T11:00:47;101251.69;;;1.43;86.46
60920;BME280;59039;52.108;19.942;2022-12-05T11:03:23;101253.55;;;1.45;86.36
60920;BME280;59039;52.108;19.942;2022-12-05T11:05:51;101249.22;;;1.46;86.41
60920;BME280;59039;52.108;19.942;2022-12-05T11:08:21;101253.08;;;1.48;86.34
60920;BME280;59039;52.108;19.942;2022-12-05T11:10:46;101251.43;;;1.48;86.24
60920;BME280;59039;52.108;19.942;2022-12-05T11:13:23;101258.36;;;1.49;86.50
60920;BME280;59039;52.108;19.942;2022-12-05T11:15:48;101262.35;;;1.52;86.39
60920;BME280;59039;52.108;19.942;2022-12-05T11:20:50;101254.25;;;1.53;86.42
60920;BME280;59039;52.108;19.942;2022-12-05T11:23:27;101249.20;;;1.54;86.31
60920;BME280;59039;52.108;19.942;2022-12-05T11:25:54;101256.13;;;1.55;86.26
60920;BME280;59039;52.108;19.942;2022-12-05T11:31:17;101256.04;;;1.53;86.27
60920;BME280;59039;52.108;19.942;2022-12-05T11:33:59;101250.76;;;1.55;86.28
60920;BME280;59039;52.108;19.942;2022-12-05T11:36:35;101252.52;;;1.59;86.31
60920;BME280;59039;52.108;19.942;2022-12-05T11:39:01;101251.08;;;1.63;86.38
60920;BME280;59039;52.108;19.942;2022-12-05T11:41:46;101249.52;;;1.65;86.23
60920;BME280;59039;52.108;19.942;2022-12-05T11:53:37;101229.12;;;1.73;86.14
60920;BME280;59039;52.108;19.942;2022-12-05T11:58:52;101220.02;;;1.73;86.07
60920;BME280;59039;52.108;19.942;2022-12-05T12:01:41;101214.59;;;1.71;86.04
60920;BME280;59039;52.108;19.942;2022-12-05T12:25:45;101196.27;;;1.79;86.06
60920;BME280;59039;52.108;19.942;2022-12-05T12:34:48;101178.89;;;1.74;85.67
60920;BME280;59039;52.108;19.942;2022-12-05T12:42:35;101174.48;;;1.73;85.73
60920;BME280;59039;52.108;19.942;2022-12-05T12:45:30;101178.08;;;1.72;85.80
60920;BME280;59039;52.108;19.942;2022-12-05T12:51:11;101165.02;;;1.76;85.99
60920;BME280;59039;52.108;19.942;2022-12-05T12:56:32;101154.95;;;1.77;85.98
60920;BME280;59039;52.108;19.942;2022-12-05T13:02:16;101147.18;;;1.82;86.00
60920;BME280;59039;52.108;19.942;2022-12-05T13:08:44;101145.67;;;1.83;86.14
60920;BME280;59039;52.108;19.942;2022-12-05T13:10:44;101154.45;;;1.86;85.98
60920;BME280;59039;52.108;19.942;2022-12-05T13:13:19;101156.45;;;1.86;86.07
60920;BME280;59039;52.108;19.942;2022-12-05T13:15:49;101159.84;;;1.90;86.07
60920;BME280;59039;52.108;19.942;2022-12-05T13:18:18;101157.05;;;1.92;85.92
60920;BME280;59039;52.108;19.942;2022-12-05T13:20:46;101151.83;;;1.92;86.01
60920;BME280;59039;52.108;19.942;2022-12-05T13:23:15;101143.35;;;1.94;85.93
60920;BME280;59039;52.108;19.942;2022-12-05T13:25:43;101140.73;;;1.93;85.92
60920;BME280;59039;52.108;19.942;2022-12-05T13:28:22;101144.94;;;1.94;86.08
60920;BME280;59039;52.108;19.942;2022-12-05T13:30:49;101145.30;;;1.97;85.98
60920;BME280;59039;52.108;19.942;2022-12-05T13:33:15;101142.96;;;1.98;85.92
60920;BME280;59039;52.108;19.942;2022-12-05T13:35:41;101137.41;;;1.98;85.79
60920;BME280;59039;52.108;19.942;2022-12-05T13:38:19;101135.13;;;1.97;85.83
60920;BME280;59039;52.108;19.942;2022-12-05T13:40:50;101131.38;;;1.97;85.87
60920;BME280;59039;52.108;19.942;2022-12-05T13:43:22;101142.77;;;1.98;85.85
60920;BME280;59039;52.108;19.942;2022-12-05T13:45:59;101142.39;;;1.98;85.79
60920;BME280;59039;52.108;19.942;2022-12-05T13:48:27;101135.90;;;1.99;85.83
60920;BME280;59039;52.108;19.942;2022-12-05T13:51:01;101131.80;;;1.99;85.94
60920;BME280;59039;52.108;19.942;2022-12-05T14:08:59;101155.63;;;1.88;85.31
60920;BME280;59039;52.108;19.942;2022-12-05T14:11:25;101146.40;;;1.87;85.42
60920;BME280;59039;52.108;19.942;2022-12-05T14:13:50;101148.77;;;1.86;85.38
60920;BME280;59039;52.108;19.942;2022-12-05T14:18:51;101142.80;;;1.84;85.35
60920;BME280;59039;52.108;19.942;2022-12-05T14:21:24;101132.46;;;1.83;85.25
60920;BME280;59039;52.108;19.942;2022-12-05T14:24:24;101124.86;;;1.82;85.32
60920;BME280;59039;52.108;19.942;2022-12-05T14:27:19;101124.60;;;1.80;85.41
60920;BME280;59039;52.108;19.942;2022-12-05T14:30:03;101122.11;;;1.80;85.57
60920;BME280;59039;52.108;19.942;2022-12-05T14:32:35;101121.84;;;1.81;85.67
60920;BME280;59039;52.108;19.942;2022-12-05T14:35:13;101117.83;;;1.83;85.74
60920;BME280;59039;52.108;19.942;2022-12-05T14:37:49;101116.12;;;1.85;85.79
60920;BME280;59039;52.108;19.942;2022-12-05T14:43:06;101117.11;;;1.86;85.95
60920;BME280;59039;52.108;19.942;2022-12-05T14:45:52;101107.66;;;1.86;85.99
60920;BME280;59039;52.108;19.942;2022-12-05T14:48:28;101110.83;;;1.87;85.99
60920;BME280;59039;52.108;19.942;2022-12-05T14:50:55;101114.27;;;1.86;86.10
60920;BME280;59039;52.108;19.942;2022-12-05T14:58:31;101122.21;;;1.88;85.96
60920;BME280;59039;52.108;19.942;2022-12-05T15:01:04;101113.13;;;1.87;86.10
60920;BME280;59039;52.108;19.942;2022-12-05T15:03:34;101117.52;;;1.89;86.05